createdAt,value
2022-12-18T00:01:24.866Z,-7.56
2022-12-18T00:03:53.449Z,-7.61
2022-12-18T00:06:22.279Z,-7.66
2022-12-18T00:08:50.286Z,-7.52
2022-12-18T00:11:19.852Z,-7.50
2022-12-18T00:13:47.817Z,-7.45
2022-12-18T00:16:17.229Z,-7.55
2022-12-18T00:18:46.389Z,-7.59
2022-12-18T00:21:14.822Z,-7.56
2022-12-18T00:23:44.503Z,-7.54
2022-12-18T00:26:13.828Z,-7.61
2022-12-18T00:28:41.453Z,-7.53
2022-12-18T00:31:10.442Z,-7.43
2022-12-18T00:33:38.932Z,-7.38
2022-12-18T00:36:10.944Z,-7.30
2022-12-18T00:38:38.874Z,-7.53
2022-12-18T00:41:08.681Z,-7.49
2022-12-18T00:43:35.717Z,-7.48
2022-12-18T00:46:03.956Z,-7.47
2022-12-18T00:48:32.934Z,-7.44
2022-12-18T00:51:00.961Z,-7.40
2022-12-18T00:53:29.885Z,-7.62
2022-12-18T00:55:57.567Z,-7.52
2022-12-18T00:58:25.173Z,-7.67
2022-12-18T01:00:52.819Z,-7.74
2022-12-18T01:03:20.473Z,-7.62
2022-12-18T01:05:48.384Z,-7.52
2022-12-18T01:08:15.977Z,-7.48
2022-12-18T01:10:44.892Z,-7.45
2022-12-18T01:13:12.729Z,-7.56
2022-12-18T01:15:40.885Z,-7.66
2022-12-18T01:18:09.213Z,-7.82
2022-12-18T01:20:36.829Z,-7.81
2022-12-18T01:23:04.420Z,-7.99
2022-12-18T01:25:32.035Z,-7.89
2022-12-18T01:28:00.955Z,-7.82
2022-12-18T01:30:28.685Z,-7.78
2022-12-18T01:32:56.271Z,-7.90
2022-12-18T01:35:23.853Z,-7.82
2022-12-18T01:37:52.217Z,-7.75
2022-12-18T01:40:20.023Z,-7.66
2022-12-18T01:42:52.086Z,-7.72
2022-12-18T01:45:29.578Z,-7.72
2022-12-18T01:47:59.475Z,-7.80
2022-12-18T01:50:30.888Z,-7.94
2022-12-18T01:53:01.643Z,-7.93
2022-12-18T01:55:31.935Z,-7.81
2022-12-18T01:58:01.100Z,-7.93
2022-12-18T02:00:31.000Z,-7.86
2022-12-18T02:02:59.088Z,-8.00
2022-12-18T02:05:35.242Z,-8.05
2022-12-18T02:08:11.865Z,-8.34
2022-12-18T02:10:46.080Z,-8.48
2022-12-18T02:13:16.570Z,-8.39
2022-12-18T02:15:52.197Z,-8.31
2022-12-18T02:18:22.730Z,-8.25
2022-12-18T02:20:54.127Z,-8.20
2022-12-18T02:23:30.503Z,-8.23
2022-12-18T02:26:21.164Z,-8.21
2022-12-18T02:28:51.668Z,-8.30
2022-12-18T02:31:26.011Z,-8.37
2022-12-18T02:33:55.913Z,-8.35
2022-12-18T02:36:24.480Z,-8.17
2022-12-18T02:38:53.074Z,-8.16
2022-12-18T02:41:22.958Z,-8.12
2022-12-18T02:43:51.709Z,-8.06
2022-12-18T02:46:30.738Z,-8.15
2022-12-18T02:49:08.838Z,-8.13
2022-12-18T02:51:42.710Z,-8.05
2022-12-18T02:54:12.834Z,-8.03
2022-12-18T02:56:45.950Z,-8.19
2022-12-18T02:59:15.978Z,-8.20
2022-12-18T03:01:47.430Z,-8.08
2022-12-18T03:04:18.793Z,-8.10
2022-12-18T03:06:49.223Z,-8.12
2022-12-18T03:09:19.383Z,-8.09
2022-12-18T03:12:06.461Z,-8.19
2022-12-18T03:14:36.232Z,-8.14
2022-12-18T03:17:05.571Z,-8.05
2022-12-18T03:19:35.270Z,-8.02
2022-12-18T03:22:05.440Z,-7.83
2022-12-18T03:24:33.694Z,-7.75
2022-12-18T03:27:04.346Z,-7.88
2022-12-18T03:29:38.064Z,-7.82
2022-12-18T03:32:13.007Z,-7.78
2022-12-18T03:34:42.588Z,-7.67
2022-12-18T03:37:10.569Z,-7.74
2022-12-18T03:39:39.563Z,-7.76
2022-12-18T03:42:14.698Z,-7.69
2022-12-18T03:44:46.231Z,-7.76
2022-12-18T03:47:16.832Z,-7.73
2022-12-18T03:49:50.408Z,-7.63
2022-12-18T03:52:23.321Z,-7.61
2022-12-18T03:54:51.025Z,-7.58
2022-12-18T03:57:22.012Z,-7.58
2022-12-18T03:59:52.893Z,-7.59
2022-12-18T04:02:20.828Z,-7.46
2022-12-18T04:04:50.044Z,-7.58
2022-12-18T04:07:18.259Z,-7.57
2022-12-18T04:09:46.691Z,-7.64
2022-12-18T04:12:14.228Z,-7.62
2022-12-18T04:14:43.711Z,-7.56
2022-12-18T04:17:11.882Z,-7.56
2022-12-18T04:19:40.527Z,-7.50
2022-12-18T04:22:08.694Z,-7.61
2022-12-18T04:24:37.588Z,-7.54
2022-12-18T04:27:05.798Z,-7.56
2022-12-18T04:29:34.635Z,-7.69
2022-12-18T04:32:03.634Z,-7.66
2022-12-18T04:34:31.542Z,-7.56
2022-12-18T04:36:59.109Z,-7.60
2022-12-18T04:39:26.802Z,-7.58
2022-12-18T04:41:54.367Z,-7.58
2022-12-18T04:44:21.916Z,-7.58
2022-12-18T04:46:49.545Z,-7.56
2022-12-18T04:49:18.604Z,-7.63
2022-12-18T04:51:46.551Z,-7.66
2022-12-18T04:54:14.361Z,-7.63
2022-12-18T04:56:42.135Z,-7.54
2022-12-18T04:59:09.726Z,-7.45
2022-12-18T05:01:37.459Z,-7.44
2022-12-18T05:04:05.577Z,-7.47
2022-12-18T05:06:34.790Z,-7.39
2022-12-18T05:09:02.366Z,-7.41
2022-12-18T05:11:29.977Z,-7.46
2022-12-18T05:13:58.817Z,-7.45
2022-12-18T05:16:26.481Z,-7.46
2022-12-18T05:18:54.102Z,-7.38
2022-12-18T05:21:21.666Z,-7.23
2022-12-18T05:23:50.566Z,-7.23
2022-12-18T05:26:19.595Z,-7.15
2022-12-18T05:28:47.634Z,-7.28
2022-12-18T05:31:15.629Z,-7.18
2022-12-18T05:33:43.710Z,-7.22
2022-12-18T05:36:12.340Z,-7.19
2022-12-18T05:38:40.857Z,-7.22
2022-12-18T05:41:11.136Z,-7.24
2022-12-18T05:43:40.175Z,-7.20
2022-12-18T05:46:08.997Z,-7.30
2022-12-18T05:48:36.855Z,-7.30
2022-12-18T05:51:09.514Z,-7.30
2022-12-18T05:53:37.918Z,-7.19
2022-12-18T05:56:08.213Z,-7.18
2022-12-18T05:58:37.208Z,-7.26
2022-12-18T06:01:09.690Z,-7.26
2022-12-18T06:03:37.841Z,-7.28
2022-12-18T06:06:06.135Z,-7.25
2022-12-18T06:08:33.696Z,-7.31
2022-12-18T06:11:02.059Z,-7.25
2022-12-18T06:13:29.667Z,-7.19
2022-12-18T06:15:58.590Z,-7.25
2022-12-18T06:18:26.640Z,-7.22
2022-12-18T06:20:57.833Z,-7.25
2022-12-18T06:23:26.204Z,-7.32
2022-12-18T06:25:53.926Z,-7.30
2022-12-18T06:28:21.733Z,-7.41
2022-12-18T06:30:50.236Z,-7.38
2022-12-18T06:33:19.297Z,-7.43
2022-12-18T06:35:46.877Z,-7.40
2022-12-18T06:38:14.490Z,-7.37
2022-12-18T06:40:42.049Z,-7.30
2022-12-18T06:43:10.367Z,-7.28
2022-12-18T06:45:38.608Z,-7.20
2022-12-18T06:48:06.567Z,-7.17
2022-12-18T06:50:35.739Z,-7.11
2022-12-18T06:53:03.347Z,-7.13
2022-12-18T06:55:31.710Z,-7.26
2022-12-18T06:57:59.282Z,-7.21
2022-12-18T07:00:26.845Z,-7.28
2022-12-18T07:02:54.536Z,-7.31
2022-12-18T07:05:22.152Z,-7.19
2022-12-18T07:07:51.193Z,-7.11
2022-12-18T07:10:18.770Z,-7.11
2022-12-18T07:12:47.209Z,-7.10
2022-12-18T07:15:14.955Z,-7.08
2022-12-18T07:17:42.822Z,-7.00
2022-12-18T07:20:11.880Z,-7.00
2022-12-18T07:22:39.887Z,-7.02
2022-12-18T07:25:09.665Z,-7.22
2022-12-18T07:27:37.272Z,-7.26
2022-12-18T07:30:06.139Z,-7.37
2022-12-18T07:32:33.686Z,-7.35
2022-12-18T07:35:01.246Z,-7.35
2022-12-18T07:37:29.148Z,-7.34
2022-12-18T07:39:56.712Z,-7.28
2022-12-18T07:42:35.768Z,-7.21
2022-12-18T07:45:04.443Z,-7.19
2022-12-18T07:47:33.275Z,-7.21
2022-12-18T07:50:00.881Z,-7.27
2022-12-18T07:52:28.492Z,-7.18
2022-12-18T07:54:56.677Z,-7.13
2022-12-18T07:57:49.461Z,-6.98
2022-12-18T08:00:14.627Z,-6.90
2022-12-18T08:02:42.486Z,-6.93
2022-12-18T08:05:10.867Z,-6.97
2022-12-18T08:07:38.442Z,-6.94
2022-12-18T08:10:06.929Z,-6.85
2022-12-18T08:12:35.900Z,-6.80
2022-12-18T08:15:03.559Z,-6.59
2022-12-18T08:17:32.374Z,-6.55
2022-12-18T08:20:00.026Z,-6.47
2022-12-18T08:22:28.006Z,-6.46
2022-12-18T08:24:55.719Z,-6.39
2022-12-18T08:27:30.648Z,-6.60
2022-12-18T08:29:59.892Z,-6.52
2022-12-18T08:32:28.446Z,-6.50
2022-12-18T08:34:56.278Z,-6.44
2022-12-18T08:37:23.827Z,-6.48
2022-12-18T08:39:51.509Z,-6.53
2022-12-18T08:42:36.042Z,-6.40
2022-12-18T08:45:05.562Z,-6.05
2022-12-18T08:47:33.504Z,-6.19
2022-12-18T08:50:01.114Z,-6.29
2022-12-18T08:52:29.242Z,-6.32
2022-12-18T08:54:56.812Z,-6.35
2022-12-18T08:57:24.403Z,-6.23
2022-12-18T08:59:52.517Z,-6.05
2022-12-18T09:02:21.671Z,-5.80
2022-12-18T09:04:55.422Z,-5.66
2022-12-18T09:07:24.794Z,-5.56
2022-12-18T09:09:52.420Z,-5.50
2022-12-18T09:12:19.994Z,-5.29
2022-12-18T09:14:47.566Z,-5.47
2022-12-18T09:17:15.292Z,-5.25
2022-12-18T09:19:44.317Z,-5.11
2022-12-18T09:22:11.916Z,-5.63
2022-12-18T09:24:39.477Z,-5.56
2022-12-18T09:27:07.164Z,-5.66
2022-12-18T09:29:35.146Z,-5.85
2022-12-18T09:32:02.721Z,-5.61
2022-12-18T09:34:30.304Z,-5.35
2022-12-18T09:36:59.597Z,-5.15
2022-12-18T09:39:27.182Z,-5.32
2022-12-18T09:41:56.938Z,-5.30
2022-12-18T09:44:27.446Z,-5.56
2022-12-18T09:47:05.490Z,-5.59
2022-12-18T09:49:35.982Z,-5.35
2022-12-18T09:52:10.055Z,-5.46
2022-12-18T09:54:41.114Z,-5.29
2022-12-18T09:57:15.352Z,-4.97
2022-12-18T09:59:44.361Z,-5.10
2022-12-18T10:02:22.274Z,-4.77
2022-12-18T10:04:56.948Z,-4.79
2022-12-18T10:07:30.322Z,-4.87
2022-12-18T10:10:04.694Z,-5.37
2022-12-18T10:12:35.180Z,-5.53
2022-12-18T10:15:06.588Z,-5.63
2022-12-18T10:17:41.248Z,-5.81
2022-12-18T10:20:14.694Z,-5.30
2022-12-18T10:22:56.295Z,-5.00
2022-12-18T10:25:27.280Z,-4.96
2022-12-18T10:27:57.229Z,-5.14
2022-12-18T10:30:25.803Z,-5.49
2022-12-18T10:32:53.618Z,-5.54
2022-12-18T10:35:22.638Z,-5.45
2022-12-18T10:38:08.985Z,-5.58
2022-12-18T10:40:51.479Z,-5.33
2022-12-18T10:43:23.464Z,-5.53
2022-12-18T10:46:16.512Z,-5.52
2022-12-18T10:48:52.424Z,-5.67
2022-12-18T10:51:25.365Z,-5.66
2022-12-18T10:53:59.158Z,-5.55
2022-12-18T10:56:28.964Z,-5.73
2022-12-18T10:59:01.837Z,-5.98
2022-12-18T11:01:30.307Z,-5.87
2022-12-18T11:04:03.116Z,-5.66
2022-12-18T11:06:31.374Z,-5.56
2022-12-18T11:09:03.666Z,-5.53
2022-12-18T11:11:34.598Z,-5.56
2022-12-18T11:14:04.732Z,-5.26
2022-12-18T11:16:36.053Z,-4.96
2022-12-18T11:19:22.246Z,-4.75
2022-12-18T11:21:50.612Z,-4.35
2022-12-18T11:24:23.215Z,-5.00
2022-12-18T11:26:56.267Z,-4.96
2022-12-18T11:29:33.486Z,-5.09
2022-12-18T11:32:30.841Z,-4.68
2022-12-18T11:35:03.280Z,-4.36
2022-12-18T11:37:31.372Z,-5.01
2022-12-18T11:40:03.802Z,-4.51
2022-12-18T11:42:37.670Z,-4.72
2022-12-18T11:45:26.886Z,-4.56
2022-12-18T11:47:59.885Z,-5.25
2022-12-18T11:50:30.856Z,-4.93
2022-12-18T11:53:04.229Z,-5.34
2022-12-18T11:55:39.807Z,-5.56
2022-12-18T11:58:14.036Z,-5.68
2022-12-18T12:00:46.870Z,-5.41
2022-12-18T12:03:24.462Z,-5.47
2022-12-18T12:06:02.214Z,-5.44
2022-12-18T12:08:39.756Z,-5.49
2022-12-18T12:11:16.212Z,-5.42
2022-12-18T12:13:51.267Z,-5.53
2022-12-18T12:16:20.567Z,-5.31
2022-12-18T12:19:07.131Z,-5.25
2022-12-18T12:21:38.832Z,-5.03
2022-12-18T12:24:17.579Z,-5.00
2022-12-18T12:26:52.248Z,-5.09
2022-12-18T12:29:30.111Z,-5.23
2022-12-18T12:32:07.002Z,-5.21
2022-12-18T12:34:37.016Z,-4.96
2022-12-18T12:37:15.636Z,-4.74
2022-12-18T12:39:44.811Z,-4.79
2022-12-18T12:42:35.728Z,-4.83
2022-12-18T12:45:07.224Z,-4.91
2022-12-18T12:47:39.703Z,-4.99
2022-12-18T12:50:14.383Z,-5.12
2022-12-18T12:52:44.912Z,-5.29
2022-12-18T12:55:17.175Z,-5.25
2022-12-18T12:57:49.866Z,-4.95
2022-12-18T13:00:20.179Z,-4.71
2022-12-18T13:02:53.278Z,-4.55
2022-12-18T13:05:26.016Z,-4.38
2022-12-18T13:07:58.523Z,-4.33
2022-12-18T13:10:33.138Z,-4.23
2022-12-18T13:13:02.968Z,-4.48
2022-12-18T13:15:40.281Z,-4.27
2022-12-18T13:18:15.496Z,-4.29
2022-12-18T13:20:50.752Z,-4.34
2022-12-18T13:23:28.991Z,-4.57
2022-12-18T13:25:57.570Z,-5.04
2022-12-18T13:28:57.392Z,-4.91
2022-12-18T13:32:10.192Z,-5.32
2022-12-18T13:34:38.466Z,-5.19
2022-12-18T13:37:45.331Z,-5.44
2022-12-18T13:40:56.143Z,-5.24
2022-12-18T13:43:33.423Z,-5.29
2022-12-18T13:46:03.979Z,-5.30
2022-12-18T13:48:34.478Z,-5.18
2022-12-18T13:51:04.518Z,-5.16
2022-12-18T13:53:35.670Z,-5.18
2022-12-18T13:56:04.492Z,-5.31
2022-12-18T13:58:34.027Z,-5.26
2022-12-18T14:01:04.053Z,-5.12
2022-12-18T14:03:32.482Z,-5.19
2022-12-18T14:06:03.769Z,-5.16
2022-12-18T14:08:37.246Z,-5.37
2022-12-18T14:11:07.492Z,-5.35
2022-12-18T14:13:38.541Z,-5.50
2022-12-18T14:16:08.499Z,-5.48
2022-12-18T14:18:45.144Z,-5.41
2022-12-18T14:21:20.760Z,-5.74
2022-12-18T14:23:48.509Z,-5.74
2022-12-18T14:26:29.339Z,-5.64
2022-12-18T14:28:58.796Z,-5.57
2022-12-18T14:31:28.172Z,-5.63
2022-12-18T14:33:56.239Z,-5.80
2022-12-18T14:36:25.980Z,-5.87
2022-12-18T14:38:55.417Z,-5.94
2022-12-18T14:41:23.748Z,-6.08
2022-12-18T14:43:52.574Z,-6.19
2022-12-18T14:46:35.254Z,-6.27
2022-12-18T14:49:04.745Z,-6.32
2022-12-18T14:51:33.811Z,-6.50
2022-12-18T14:54:03.656Z,-6.61
2022-12-18T14:56:33.316Z,-6.77
2022-12-18T14:59:02.260Z,-6.74
2022-12-18T15:01:33.412Z,-6.81
2022-12-18T15:04:02.672Z,-6.93
2022-12-18T15:06:35.806Z,-6.89
2022-12-18T15:09:05.581Z,-7.01
2022-12-18T15:11:48.520Z,-7.08
2022-12-18T15:14:35.737Z,-7.20
2022-12-18T15:17:07.347Z,-7.30
2022-12-18T15:19:40.024Z,-7.32
2022-12-18T15:22:20.801Z,-7.45
2022-12-18T15:24:50.006Z,-7.56
2022-12-18T15:27:26.415Z,-7.54
2022-12-18T15:30:19.291Z,-7.59
2022-12-18T15:32:49.780Z,-7.61
2022-12-18T15:35:19.911Z,-7.64
2022-12-18T15:37:48.171Z,-7.69
2022-12-18T15:40:17.460Z,-7.78
2022-12-18T15:43:03.391Z,-7.86
2022-12-18T15:45:31.197Z,-7.96
2022-12-18T15:48:00.143Z,-8.04
2022-12-18T15:50:28.043Z,-8.03
2022-12-18T15:52:56.849Z,-8.00
2022-12-18T15:55:43.991Z,-8.04
2022-12-18T15:58:12.908Z,-8.15
2022-12-18T16:00:42.286Z,-8.19
2022-12-18T16:03:11.943Z,-8.22
2022-12-18T16:05:39.603Z,-8.24
2022-12-18T16:08:07.233Z,-8.29
2022-12-18T16:10:34.909Z,-8.27
2022-12-18T16:15:38.666Z,-8.40
2022-12-18T16:18:06.386Z,-8.38
2022-12-18T16:20:35.398Z,-8.41
2022-12-18T16:23:04.450Z,-8.46
2022-12-18T16:25:32.203Z,-8.43
2022-12-18T16:28:01.711Z,-8.44
2022-12-18T16:30:36.241Z,-8.48
2022-12-18T16:33:09.304Z,-8.52
2022-12-18T16:35:41.543Z,-8.61
2022-12-18T16:38:10.250Z,-8.54
2022-12-18T16:41:00.091Z,-8.63
2022-12-18T16:43:27.767Z,-8.64
2022-12-18T16:45:58.426Z,-8.70
2022-12-18T16:48:26.532Z,-8.72
2022-12-18T16:51:03.698Z,-8.68
2022-12-18T16:53:31.488Z,-8.68
2022-12-18T16:56:00.128Z,-8.74
2022-12-18T16:58:27.794Z,-8.80
2022-12-18T17:00:55.376Z,-8.84
2022-12-18T17:03:23.060Z,-8.89
2022-12-18T17:05:53.212Z,-8.81
2022-12-18T17:08:22.382Z,-8.93
2022-12-18T17:10:49.947Z,-8.90
2022-12-18T17:13:20.257Z,-8.97
2022-12-18T17:15:51.792Z,-9.07
2022-12-18T17:18:19.702Z,-9.14
2022-12-18T17:20:47.412Z,-9.15
2022-12-18T17:23:15.119Z,-9.23
2022-12-18T17:25:44.015Z,-9.24
2022-12-18T17:28:12.010Z,-9.27
2022-12-18T17:30:39.569Z,-9.30
2022-12-18T17:33:07.697Z,-9.35
2022-12-18T17:35:35.304Z,-9.41
2022-12-18T17:38:02.881Z,-9.36
2022-12-18T17:40:30.441Z,-9.37
2022-12-18T17:43:00.034Z,-9.37
2022-12-18T17:45:27.824Z,-9.40
2022-12-18T17:47:59.738Z,-9.40
2022-12-18T17:50:27.593Z,-9.46
2022-12-18T17:52:56.878Z,-9.58
2022-12-18T17:55:24.518Z,-9.54
2022-12-18T17:57:52.093Z,-9.55
2022-12-18T18:00:21.382Z,-9.60
2022-12-18T18:02:49.076Z,-9.63
2022-12-18T18:05:17.101Z,-9.68
2022-12-18T18:07:44.697Z,-9.71
2022-12-18T18:10:12.375Z,-9.79
2022-12-18T18:12:57.686Z,-9.83
2022-12-18T18:15:26.584Z,-9.85
2022-12-18T18:17:54.177Z,-9.84
2022-12-18T18:20:22.760Z,-9.88
2022-12-18T18:22:51.096Z,-9.94
2022-12-18T18:25:18.844Z,-9.95
2022-12-18T18:27:47.062Z,-10.05
2022-12-18T18:30:15.426Z,-9.92
2022-12-18T18:32:44.352Z,-9.89
2022-12-18T18:35:24.573Z,-9.95
2022-12-18T18:38:00.762Z,-9.91
2022-12-18T18:40:28.498Z,-10.03
2022-12-18T18:42:57.491Z,-9.96
2022-12-18T18:45:25.189Z,-9.97
2022-12-18T18:47:54.888Z,-10.00
2022-12-18T18:50:22.718Z,-9.93
2022-12-18T18:52:51.057Z,-10.07
2022-12-18T18:55:25.475Z,-10.09
2022-12-18T18:57:53.477Z,-9.99
2022-12-18T19:00:21.514Z,-10.01
2022-12-18T19:02:49.555Z,-9.95
2022-12-18T19:05:18.788Z,-9.91
2022-12-18T19:07:46.389Z,-9.87
2022-12-18T19:10:14.042Z,-9.75
2022-12-18T19:12:59.424Z,-9.63
2022-12-18T19:15:26.970Z,-9.69
2022-12-18T19:17:54.919Z,-9.65
2022-12-18T19:20:24.037Z,-9.59
2022-12-18T19:22:55.500Z,-9.61
2022-12-18T19:25:30.680Z,-9.60
2022-12-18T19:28:12.019Z,-9.55
2022-12-18T19:30:50.597Z,-9.62
2022-12-18T19:33:41.763Z,-9.71
2022-12-18T19:36:14.193Z,-9.67
2022-12-18T19:38:43.703Z,-9.62
2022-12-18T19:41:12.929Z,-9.53
2022-12-18T19:43:41.569Z,-9.52
2022-12-18T19:46:10.550Z,-9.55
2022-12-18T19:48:38.464Z,-9.61
2022-12-18T19:51:07.693Z,-9.51
2022-12-18T19:53:37.018Z,-9.55
2022-12-18T19:56:08.338Z,-9.61
2022-12-18T19:58:36.410Z,-9.49
2022-12-18T20:01:04.465Z,-9.56
2022-12-18T20:03:34.586Z,-9.52
2022-12-18T20:06:09.682Z,-9.59
2022-12-18T20:08:39.265Z,-9.55
2022-12-18T20:11:07.522Z,-9.58
2022-12-18T20:13:35.448Z,-9.58
2022-12-18T20:16:03.053Z,-9.55
2022-12-18T20:18:30.721Z,-9.61
2022-12-18T20:20:58.919Z,-9.56
2022-12-18T20:23:29.319Z,-9.52
2022-12-18T20:26:01.192Z,-9.60
2022-12-18T20:28:29.265Z,-9.53
2022-12-18T20:31:01.668Z,-9.52
2022-12-18T20:33:30.053Z,-9.47
2022-12-18T20:36:02.303Z,-9.40
2022-12-18T20:38:31.120Z,-9.39
2022-12-18T20:41:02.550Z,-9.48
2022-12-18T20:43:30.209Z,-9.47
2022-12-18T20:46:03.096Z,-9.48
2022-12-18T20:48:31.180Z,-9.28
2022-12-18T20:51:00.194Z,-9.33
2022-12-18T20:53:31.899Z,-9.36
2022-12-18T20:56:02.161Z,-9.09
2022-12-18T20:58:29.837Z,-9.09
2022-12-18T21:01:04.185Z,-9.09
2022-12-18T21:03:32.157Z,-9.19
2022-12-18T21:05:59.853Z,-9.11
2022-12-18T21:08:27.434Z,-9.02
2022-12-18T21:10:55.528Z,-9.01
2022-12-18T21:13:23.580Z,-8.99
2022-12-18T21:15:54.382Z,-8.85
2022-12-18T21:18:22.610Z,-8.89
2022-12-18T21:20:50.494Z,-8.81
2022-12-18T21:23:18.721Z,-8.83
2022-12-18T21:25:47.558Z,-8.83
2022-12-18T21:28:19.485Z,-8.77
2022-12-18T21:30:49.203Z,-8.74
2022-12-18T21:33:17.520Z,-8.87
2022-12-18T21:35:45.084Z,-8.78
2022-12-18T21:38:14.214Z,-8.73
2022-12-18T21:40:41.870Z,-8.81
2022-12-18T21:43:27.778Z,-8.87
2022-12-18T21:45:57.897Z,-8.80
2022-12-18T21:48:27.385Z,-8.80
2022-12-18T21:50:55.561Z,-9.04
2022-12-18T21:53:23.170Z,-9.04
2022-12-18T21:55:58.662Z,-9.04
2022-12-18T21:58:26.270Z,-8.98
2022-12-18T22:00:53.970Z,-8.95
